sensor_id;sensor_type;location;lat;lon;timestamp;P1;durP1;ratioP1;P2;durP2;ratioP2
9240;SDS011;53485;49.326;9.738;2022-07-29T00:00:40;6.03;;;1.60;;
9240;SDS011;53485;49.326;9.738;2022-07-29T00:03:08;1.70;;;1.40;;
9240;SDS011;53485;49.326;9.738;2022-07-29T00:05:35;2.30;;;1.37;;
9240;SDS011;53485;49.326;9.738;2022-07-29T00:08:03;2.17;;;1.50;;
9240;SDS011;53485;49.326;9.738;2022-07-29T00:10:30;2.43;;;1.70;;
9240;SDS011;53485;49.326;9.738;2022-07-29T00:12:58;2.03;;;1.30;;
9240;SDS011;53485;49.326;9.738;2022-07-29T00:15:25;3.03;;;1.50;;
9240;SDS011;53485;49.326;9.738;2022-07-29T00:17:53;2.83;;;1.67;;
9240;SDS011;53485;49.326;9.738;2022-07-29T00:20:20;3.27;;;1.57;;
9240;SDS011;53485;49.326;9.738;2022-07-29T00:22:47;3.03;;;1.77;;
9240;SDS011;53485;49.326;9.738;2022-07-29T00:25:15;3.23;;;1.50;;
9240;SDS011;53485;49.326;9.738;2022-07-29T00:27:42;1.70;;;1.60;;
9240;SDS011;53485;49.326;9.738;2022-07-29T00:30:09;2.27;;;1.80;;
9240;SDS011;53485;49.326;9.738;2022-07-29T00:32:37;1.70;;;1.60;;
9240;SDS011;53485;49.326;9.738;2022-07-29T00:35:04;2.10;;;1.40;;
9240;SDS011;53485;49.326;9.738;2022-07-29T00:37:38;2.20;;;1.83;;
9240;SDS011;53485;49.326;9.738;2022-07-29T00:40:06;1.70;;;1.60;;
9240;SDS011;53485;49.326;9.738;2022-07-29T00:45:08;4.53;;;1.63;;
9240;SDS011;53485;49.326;9.738;2022-07-29T00:47:35;3.20;;;1.70;;
9240;SDS011;53485;49.326;9.738;2022-07-29T00:50:03;1.73;;;1.63;;
9240;SDS011;53485;49.326;9.738;2022-07-29T00:52:31;2.30;;;1.90;;
9240;SDS011;53485;49.326;9.738;2022-07-29T00:54:57;3.50;;;1.97;;
9240;SDS011;53485;49.326;9.738;2022-07-29T00:57:25;1.93;;;1.50;;
9240;SDS011;53485;49.326;9.738;2022-07-29T00:59:52;3.57;;;1.90;;
9240;SDS011;53485;49.326;9.738;2022-07-29T01:02:19;2.63;;;2.00;;
9240;SDS011;53485;49.326;9.738;2022-07-29T01:04:47;2.13;;;1.70;;
9240;SDS011;53485;49.326;9.738;2022-07-29T01:07:14;1.87;;;1.63;;
9240;SDS011;53485;49.326;9.738;2022-07-29T01:09:41;2.57;;;1.77;;
9240;SDS011;53485;49.326;9.738;2022-07-29T01:12:08;3.10;;;1.87;;
9240;SDS011;53485;49.326;9.738;2022-07-29T01:14:35;2.17;;;1.77;;
9240;SDS011;53485;49.326;9.738;2022-07-29T01:17:12;5.40;;;1.57;;
9240;SDS011;53485;49.326;9.738;2022-07-29T01:19:45;4.27;;;1.80;;
9240;SDS011;53485;49.326;9.738;2022-07-29T01:22:19;4.27;;;1.70;;
9240;SDS011;53485;49.326;9.738;2022-07-29T01:25:02;7.43;;;2.20;;
9240;SDS011;53485;49.326;9.738;2022-07-29T01:27:45;3.43;;;2.33;;
9240;SDS011;53485;49.326;9.738;2022-07-29T01:30:19;2.10;;;1.90;;
9240;SDS011;53485;49.326;9.738;2022-07-29T01:32:47;3.60;;;1.90;;
9240;SDS011;53485;49.326;9.738;2022-07-29T01:35:15;4.00;;;2.17;;
9240;SDS011;53485;49.326;9.738;2022-07-29T01:37:46;5.40;;;1.77;;
9240;SDS011;53485;49.326;9.738;2022-07-29T01:40:20;1.87;;;1.60;;
9240;SDS011;53485;49.326;9.738;2022-07-29T01:42:49;3.13;;;1.63;;
9240;SDS011;53485;49.326;9.738;2022-07-29T01:45:17;2.53;;;2.33;;
9240;SDS011;53485;49.326;9.738;2022-07-29T01:48:20;2.17;;;2.00;;
9240;SDS011;53485;49.326;9.738;2022-07-29T01:50:31;2.70;;;1.43;;
9240;SDS011;53485;49.326;9.738;2022-07-29T01:52:59;2.40;;;2.20;;
9240;SDS011;53485;49.326;9.738;2022-07-29T01:55:27;2.77;;;1.67;;
9240;SDS011;53485;49.326;9.738;2022-07-29T01:57:52;3.30;;;2.10;;
9240;SDS011;53485;49.326;9.738;2022-07-29T02:00:19;6.00;;;2.00;;
9240;SDS011;53485;49.326;9.738;2022-07-29T02:02:46;2.43;;;2.23;;
9240;SDS011;53485;49.326;9.738;2022-07-29T02:05:14;5.90;;;2.40;;
9240;SDS011;53485;49.326;9.738;2022-07-29T02:07:40;2.70;;;2.43;;
9240;SDS011;53485;49.326;9.738;2022-07-29T02:10:07;2.93;;;1.87;;
9240;SDS011;53485;49.326;9.738;2022-07-29T02:12:35;1.97;;;1.77;;
9240;SDS011;53485;49.326;9.738;2022-07-29T02:15:02;2.57;;;1.70;;
9240;SDS011;53485;49.326;9.738;2022-07-29T02:17:33;3.63;;;1.97;;
9240;SDS011;53485;49.326;9.738;2022-07-29T02:19:59;2.57;;;1.93;;
9240;SDS011;53485;49.326;9.738;2022-07-29T02:22:26;3.33;;;2.13;;
9240;SDS011;53485;49.326;9.738;2022-07-29T02:24:52;2.63;;;2.10;;
9240;SDS011;53485;49.326;9.738;2022-07-29T02:27:19;3.40;;;1.93;;
9240;SDS011;53485;49.326;9.738;2022-07-29T02:29:46;2.47;;;2.23;;
9240;SDS011;53485;49.326;9.738;2022-07-29T02:32:13;3.77;;;2.20;;
9240;SDS011;53485;49.326;9.738;2022-07-29T02:34:40;4.20;;;2.00;;
9240;SDS011;53485;49.326;9.738;2022-07-29T02:37:08;4.03;;;2.30;;
9240;SDS011;53485;49.326;9.738;2022-07-29T02:39:34;2.23;;;1.97;;
9240;SDS011;53485;49.326;9.738;2022-07-29T02:42:02;5.40;;;2.53;;
9240;SDS011;53485;49.326;9.738;2022-07-29T02:44:28;4.20;;;2.47;;
9240;SDS011;53485;49.326;9.738;2022-07-29T02:46:59;2.90;;;2.27;;
9240;SDS011;53485;49.326;9.738;2022-07-29T02:49:35;2.43;;;2.23;;
9240;SDS011;53485;49.326;9.738;2022-07-29T02:52:04;3.33;;;2.60;;
9240;SDS011;53485;49.326;9.738;2022-07-29T02:54:48;2.87;;;2.10;;
9240;SDS011;53485;49.326;9.738;2022-07-29T02:57:21;1.93;;;1.73;;
9240;SDS011;53485;49.326;9.738;2022-07-29T02:59:48;2.30;;;2.10;;
9240;SDS011;53485;49.326;9.738;2022-07-29T03:02:14;2.53;;;2.37;;
9240;SDS011;53485;49.326;9.738;2022-07-29T03:04:41;2.23;;;2.13;;
9240;SDS011;53485;49.326;9.738;2022-07-29T03:07:08;2.97;;;2.27;;
9240;SDS011;53485;49.326;9.738;2022-07-29T03:09:35;3.03;;;2.30;;
9240;SDS011;53485;49.326;9.738;2022-07-29T03:12:03;2.43;;;2.23;;
9240;SDS011;53485;49.326;9.738;2022-07-29T03:14:30;2.77;;;2.10;;
9240;SDS011;53485;49.326;9.738;2022-07-29T03:16:57;3.00;;;2.70;;
9240;SDS011;53485;49.326;9.738;2022-07-29T03:19:24;3.70;;;2.37;;
9240;SDS011;53485;49.326;9.738;2022-07-29T03:21:51;2.83;;;2.00;;
9240;SDS011;53485;49.326;9.738;2022-07-29T03:24:29;1.63;;;1.43;;
9240;SDS011;53485;49.326;9.738;2022-07-29T03:26:54;7.00;;;2.80;;
9240;SDS011;53485;49.326;9.738;2022-07-29T03:29:21;3.13;;;2.83;;
9240;SDS011;53485;49.326;9.738;2022-07-29T03:31:48;2.97;;;2.20;;
9240;SDS011;53485;49.326;9.738;2022-07-29T03:34:15;2.43;;;2.23;;
9240;SDS011;53485;49.326;9.738;2022-07-29T03:36:43;2.20;;;1.93;;
9240;SDS011;53485;49.326;9.738;2022-07-29T03:39:10;3.17;;;2.40;;
9240;SDS011;53485;49.326;9.738;2022-07-29T03:41:37;4.83;;;2.80;;
9240;SDS011;53485;49.326;9.738;2022-07-29T03:44:05;6.63;;;2.57;;
9240;SDS011;53485;49.326;9.738;2022-07-29T03:46:31;4.17;;;2.30;;
9240;SDS011;53485;49.326;9.738;2022-07-29T03:48:59;2.53;;;2.33;;
9240;SDS011;53485;49.326;9.738;2022-07-29T03:51:25;4.20;;;2.23;;
9240;SDS011;53485;49.326;9.738;2022-07-29T03:53:52;3.30;;;2.63;;
9240;SDS011;53485;49.326;9.738;2022-07-29T03:56:20;3.40;;;2.67;;
9240;SDS011;53485;49.326;9.738;2022-07-29T03:58:45;3.77;;;2.50;;
9240;SDS011;53485;49.326;9.738;2022-07-29T04:01:12;4.00;;;2.67;;
9240;SDS011;53485;49.326;9.738;2022-07-29T04:03:39;2.13;;;2.00;;
9240;SDS011;53485;49.326;9.738;2022-07-29T04:06:07;3.23;;;2.67;;
9240;SDS011;53485;49.326;9.738;2022-07-29T04:08:34;4.07;;;2.73;;
9240;SDS011;53485;49.326;9.738;2022-07-29T04:11:01;2.73;;;2.50;;
9240;SDS011;53485;49.326;9.738;2022-07-29T04:13:28;5.57;;;3.07;;
9240;SDS011;53485;49.326;9.738;2022-07-29T04:15:55;4.03;;;2.57;;
9240;SDS011;53485;49.326;9.738;2022-07-29T04:18:22;4.07;;;2.90;;
9240;SDS011;53485;49.326;9.738;2022-07-29T04:20:49;6.40;;;3.30;;
9240;SDS011;53485;49.326;9.738;2022-07-29T04:23:16;3.50;;;3.17;;
9240;SDS011;53485;49.326;9.738;2022-07-29T04:25:44;5.13;;;2.80;;
9240;SDS011;53485;49.326;9.738;2022-07-29T04:28:11;3.47;;;3.20;;
9240;SDS011;53485;49.326;9.738;2022-07-29T04:30:38;3.57;;;3.27;;
9240;SDS011;53485;49.326;9.738;2022-07-29T04:33:06;6.50;;;3.07;;
9240;SDS011;53485;49.326;9.738;2022-07-29T04:35:34;3.77;;;2.87;;
9240;SDS011;53485;49.326;9.738;2022-07-29T04:38:00;3.30;;;2.90;;
9240;SDS011;53485;49.326;9.738;2022-07-29T04:40:27;3.70;;;3.40;;
9240;SDS011;53485;49.326;9.738;2022-07-29T04:42:54;2.93;;;2.73;;
9240;SDS011;53485;49.326;9.738;2022-07-29T04:45:22;5.10;;;2.67;;
9240;SDS011;53485;49.326;9.738;2022-07-29T04:47:49;5.17;;;2.50;;
9240;SDS011;53485;49.326;9.738;2022-07-29T04:50:16;3.37;;;2.77;;
9240;SDS011;53485;49.326;9.738;2022-07-29T04:52:43;4.30;;;2.50;;
9240;SDS011;53485;49.326;9.738;2022-07-29T04:55:11;2.50;;;2.40;;
9240;SDS011;53485;49.326;9.738;2022-07-29T04:57:38;4.00;;;2.13;;
9240;SDS011;53485;49.326;9.738;2022-07-29T05:00:06;3.00;;;2.07;;
9240;SDS011;53485;49.326;9.738;2022-07-29T05:02:34;5.90;;;2.93;;
9240;SDS011;53485;49.326;9.738;2022-07-29T05:05:01;4.17;;;3.20;;
9240;SDS011;53485;49.326;9.738;2022-07-29T05:07:29;3.20;;;2.67;;
9240;SDS011;53485;49.326;9.738;2022-07-29T05:09:56;10.87;;;3.30;;
9240;SDS011;53485;49.326;9.738;2022-07-29T05:12:24;5.33;;;2.80;;
9240;SDS011;53485;49.326;9.738;2022-07-29T05:14:50;5.60;;;2.17;;
9240;SDS011;53485;49.326;9.738;2022-07-29T05:17:17;2.27;;;2.07;;
9240;SDS011;53485;49.326;9.738;2022-07-29T05:19:44;2.63;;;2.43;;
9240;SDS011;53485;49.326;9.738;2022-07-29T05:22:12;2.30;;;2.10;;
9240;SDS011;53485;49.326;9.738;2022-07-29T05:24:39;4.00;;;2.43;;
9240;SDS011;53485;49.326;9.738;2022-07-29T05:27:07;2.03;;;1.93;;
9240;SDS011;53485;49.326;9.738;2022-07-29T05:29:34;2.37;;;1.90;;
9240;SDS011;53485;49.326;9.738;2022-07-29T05:32:01;2.50;;;2.00;;
9240;SDS011;53485;49.326;9.738;2022-07-29T05:34:28;5.90;;;2.93;;
9240;SDS011;53485;49.326;9.738;2022-07-29T05:36:56;7.20;;;2.43;;
9240;SDS011;53485;49.326;9.738;2022-07-29T05:39:23;7.47;;;2.30;;
9240;SDS011;53485;49.326;9.738;2022-07-29T05:41:50;15.27;;;3.60;;
9240;SDS011;53485;49.326;9.738;2022-07-29T05:44:17;3.57;;;2.47;;
9240;SDS011;53485;49.326;9.738;2022-07-29T05:46:44;5.73;;;2.70;;
9240;SDS011;53485;49.326;9.738;2022-07-29T05:49:12;6.60;;;2.60;;
9240;SDS011;53485;49.326;9.738;2022-07-29T05:51:39;2.10;;;1.73;;
9240;SDS011;53485;49.326;9.738;2022-07-29T05:54:06;5.03;;;2.20;;
9240;SDS011;53485;49.326;9.738;2022-07-29T05:56:35;4.13;;;2.00;;
9240;SDS011;53485;49.326;9.738;2022-07-29T05:59:01;2.93;;;2.00;;
9240;SDS011;53485;49.326;9.738;2022-07-29T06:01:28;1.90;;;1.80;;
9240;SDS011;53485;49.326;9.738;2022-07-29T06:03:55;99.80;;;11.10;;
9240;SDS011;53485;49.326;9.738;2022-07-29T06:06:22;53.03;;;9.13;;
9240;SDS011;53485;49.326;9.738;2022-07-29T06:08:50;10.00;;;2.37;;
9240;SDS011;53485;49.326;9.738;2022-07-29T06:11:17;13.07;;;3.70;;
9240;SDS011;53485;49.326;9.738;2022-07-29T06:13:45;6.60;;;2.47;;
9240;SDS011;53485;49.326;9.738;2022-07-29T06:16:12;3.23;;;1.73;;
9240;SDS011;53485;49.326;9.738;2022-07-29T06:18:39;4.80;;;2.20;;
9240;SDS011;53485;49.326;9.738;2022-07-29T06:21:07;2.50;;;1.97;;
9240;SDS011;53485;49.326;9.738;2022-07-29T06:23:33;3.33;;;1.90;;
9240;SDS011;53485;49.326;9.738;2022-07-29T06:26:00;3.10;;;1.93;;
9240;SDS011;53485;49.326;9.738;2022-07-29T06:28:28;6.97;;;2.13;;
9240;SDS011;53485;49.326;9.738;2022-07-29T06:30:55;1.70;;;1.60;;
9240;SDS011;53485;49.326;9.738;2022-07-29T06:33:22;2.53;;;2.10;;
9240;SDS011;53485;49.326;9.738;2022-07-29T06:35:50;7.50;;;2.23;;
9240;SDS011;53485;49.326;9.738;2022-07-29T06:38:17;2.57;;;1.70;;
9240;SDS011;53485;49.326;9.738;2022-07-29T06:40:45;1.93;;;1.70;;
9240;SDS011;53485;49.326;9.738;2022-07-29T06:43:17;1.90;;;1.80;;
9240;SDS011;53485;49.326;9.738;2022-07-29T06:45:44;1.73;;;1.60;;
9240;SDS011;53485;49.326;9.738;2022-07-29T06:48:11;2.13;;;1.70;;
9240;SDS011;53485;49.326;9.738;2022-07-29T06:50:39;3.70;;;2.00;;
9240;SDS011;53485;49.326;9.738;2022-07-29T06:53:06;3.20;;;1.70;;
9240;SDS011;53485;49.326;9.738;2022-07-29T06:55:34;2.43;;;1.87;;
9240;SDS011;53485;49.326;9.738;2022-07-29T06:58:01;2.30;;;2.10;;
9240;SDS011;53485;49.326;9.738;2022-07-29T07:00:28;2.53;;;2.20;;
9240;SDS011;53485;49.326;9.738;2022-07-29T07:02:56;2.20;;;2.00;;
9240;SDS011;53485;49.326;9.738;2022-07-29T07:05:23;2.80;;;1.90;;
9240;SDS011;53485;49.326;9.738;2022-07-29T07:07:51;2.43;;;2.23;;
9240;SDS011;53485;49.326;9.738;2022-07-29T07:10:18;2.27;;;2.10;;
9240;SDS011;53485;49.326;9.738;2022-07-29T07:12:45;2.33;;;1.60;;
9240;SDS011;53485;49.326;9.738;2022-07-29T07:15:13;1.83;;;1.63;;
9240;SDS011;53485;49.326;9.738;2022-07-29T07:17:40;1.80;;;1.70;;
9240;SDS011;53485;49.326;9.738;2022-07-29T07:20:08;2.70;;;1.80;;
9240;SDS011;53485;49.326;9.738;2022-07-29T07:22:35;3.60;;;1.70;;
9240;SDS011;53485;49.326;9.738;2022-07-29T07:25:03;2.33;;;1.80;;
9240;SDS011;53485;49.326;9.738;2022-07-29T07:27:31;1.70;;;1.60;;
9240;SDS011;53485;49.326;9.738;2022-07-29T07:29:58;5.23;;;2.47;;
9240;SDS011;53485;49.326;9.738;2022-07-29T07:32:25;2.47;;;1.90;;
9240;SDS011;53485;49.326;9.738;2022-07-29T07:34:53;4.90;;;2.17;;
9240;SDS011;53485;49.326;9.738;2022-07-29T07:37:20;3.07;;;2.70;;
9240;SDS011;53485;49.326;9.738;2022-07-29T07:39:48;2.73;;;2.30;;
9240;SDS011;53485;49.326;9.738;2022-07-29T07:42:15;2.27;;;1.70;;
9240;SDS011;53485;49.326;9.738;2022-07-29T07:44:42;1.80;;;1.70;;
9240;SDS011;53485;49.326;9.738;2022-07-29T07:47:09;3.30;;;1.90;;
9240;SDS011;53485;49.326;9.738;2022-07-29T07:49:37;1.90;;;1.70;;
9240;SDS011;53485;49.326;9.738;2022-07-29T07:52:04;1.57;;;1.20;;
9240;SDS011;53485;49.326;9.738;2022-07-29T07:54:31;1.73;;;1.40;;
9240;SDS011;53485;49.326;9.738;2022-07-29T07:56:58;1.37;;;1.20;;
9240;SDS011;53485;49.326;9.738;2022-07-29T07:59:25;1.63;;;1.30;;
9240;SDS011;53485;49.326;9.738;2022-07-29T08:01:52;2.67;;;1.30;;
9240;SDS011;53485;49.326;9.738;2022-07-29T08:04:20;1.50;;;1.40;;
9240;SDS011;53485;49.326;9.738;2022-07-29T08:06:47;1.93;;;1.40;;
9240;SDS011;53485;49.326;9.738;2022-07-29T08:09:14;1.57;;;1.47;;
9240;SDS011;53485;49.326;9.738;2022-07-29T08:11:42;2.83;;;1.40;;
9240;SDS011;53485;49.326;9.738;2022-07-29T08:14:09;1.70;;;1.43;;
9240;SDS011;53485;49.326;9.738;2022-07-29T08:16:37;1.60;;;1.50;;
9240;SDS011;53485;49.326;9.738;2022-07-29T08:19:04;1.83;;;1.53;;
9240;SDS011;53485;49.326;9.738;2022-07-29T08:21:31;2.70;;;1.70;;
9240;SDS011;53485;49.326;9.738;2022-07-29T08:23:58;2.67;;;2.00;;
9240;SDS011;53485;49.326;9.738;2022-07-29T08:26:31;3.40;;;2.10;;
9240;SDS011;53485;49.326;9.738;2022-07-29T08:28:58;2.27;;;1.70;;
9240;SDS011;53485;49.326;9.738;2022-07-29T08:31:26;1.70;;;1.60;;
9240;SDS011;53485;49.326;9.738;2022-07-29T08:33:53;1.60;;;1.50;;
9240;SDS011;53485;49.326;9.738;2022-07-29T08:36:20;2.33;;;1.63;;
9240;SDS011;53485;49.326;9.738;2022-07-29T08:38:48;1.53;;;1.43;;
9240;SDS011;53485;49.326;9.738;2022-07-29T08:41:15;2.07;;;1.60;;
9240;SDS011;53485;49.326;9.738;2022-07-29T08:43:44;2.50;;;1.62;;
9240;SDS011;53485;49.326;9.738;2022-07-29T08:46:11;3.80;;;1.70;;
9240;SDS011;53485;49.326;9.738;2022-07-29T08:48:39;2.55;;;1.73;;
9240;SDS011;53485;49.326;9.738;2022-07-29T08:51:07;1.70;;;1.52;;
9240;SDS011;53485;49.326;9.738;2022-07-29T08:53:34;2.05;;;1.90;;
9240;SDS011;53485;49.326;9.738;2022-07-29T08:56:02;2.35;;;1.98;;
9240;SDS011;53485;49.326;9.738;2022-07-29T08:58:31;4.78;;;1.80;;
9240;SDS011;53485;49.326;9.738;2022-07-29T09:00:57;1.77;;;1.67;;
9240;SDS011;53485;49.326;9.738;2022-07-29T09:03:25;3.45;;;1.77;;
9240;SDS011;53485;49.326;9.738;2022-07-29T09:05:52;2.28;;;1.60;;
9240;SDS011;53485;49.326;9.738;2022-07-29T09:08:19;4.32;;;1.67;;
9240;SDS011;53485;49.326;9.738;2022-07-29T09:10:47;2.35;;;1.98;;
9240;SDS011;53485;49.326;9.738;2022-07-29T09:13:15;3.35;;;1.60;;
9240;SDS011;53485;49.326;9.738;2022-07-29T09:15:43;3.62;;;1.87;;
9240;SDS011;53485;49.326;9.738;2022-07-29T09:18:10;3.03;;;1.60;;
9240;SDS011;53485;49.326;9.738;2022-07-29T09:20:38;1.83;;;1.33;;
9240;SDS011;53485;49.326;9.738;2022-07-29T09:23:12;3.08;;;1.90;;
9240;SDS011;53485;49.326;9.738;2022-07-29T09:25:39;3.67;;;1.60;;
9240;SDS011;53485;49.326;9.738;2022-07-29T09:28:10;1.60;;;1.50;;
9240;SDS011;53485;49.326;9.738;2022-07-29T09:30:53;2.97;;;1.50;;
9240;SDS011;53485;49.326;9.738;2022-07-29T09:33:20;3.30;;;1.50;;
9240;SDS011;53485;49.326;9.738;2022-07-29T09:35:58;2.00;;;1.77;;
9240;SDS011;53485;49.326;9.738;2022-07-29T09:38:20;4.12;;;1.95;;
9240;SDS011;53485;49.326;9.738;2022-07-29T09:43:22;2.87;;;1.50;;
9240;SDS011;53485;49.326;9.738;2022-07-29T09:45:50;3.10;;;1.52;;
9240;SDS011;53485;49.326;9.738;2022-07-29T09:48:20;2.17;;;1.62;;
9240;SDS011;53485;49.326;9.738;2022-07-29T09:50:46;1.70;;;1.60;;
9240;SDS011;53485;49.326;9.738;2022-07-29T09:55:53;2.05;;;1.60;;
9240;SDS011;53485;49.326;9.738;2022-07-29T09:58:21;2.00;;;1.65;;
9240;SDS011;53485;49.326;9.738;2022-07-29T10:00:50;2.70;;;1.90;;
9240;SDS011;53485;49.326;9.738;2022-07-29T10:03:16;2.03;;;1.50;;
9240;SDS011;53485;49.326;9.738;2022-07-29T10:05:44;3.87;;;1.67;;
9240;SDS011;53485;49.326;9.738;2022-07-29T10:08:11;2.03;;;1.80;;
9240;SDS011;53485;49.326;9.738;2022-07-29T10:10:40;2.35;;;2.00;;
9240;SDS011;53485;49.326;9.738;2022-07-29T10:13:08;1.73;;;1.60;;
9240;SDS011;53485;49.326;9.738;2022-07-29T10:15:35;1.70;;;1.60;;
9240;SDS011;53485;49.326;9.738;2022-07-29T10:18:04;1.73;;;1.62;;
9240;SDS011;53485;49.326;9.738;2022-07-29T10:20:31;1.52;;;1.42;;
9240;SDS011;53485;49.326;9.738;2022-07-29T10:22:59;3.03;;;1.98;;
9240;SDS011;53485;49.326;9.738;2022-07-29T10:25:27;1.90;;;1.70;;
9240;SDS011;53485;49.326;9.738;2022-07-29T10:27:55;3.78;;;1.50;;
9240;SDS011;53485;49.326;9.738;2022-07-29T10:30:24;2.30;;;2.10;;
9240;SDS011;53485;49.326;9.738;2022-07-29T10:38:35;3.53;;;1.80;;
9240;SDS011;53485;49.326;9.738;2022-07-29T10:41:07;2.22;;;1.80;;
9240;SDS011;53485;49.326;9.738;2022-07-29T10:43:45;2.50;;;1.50;;
9240;SDS011;53485;49.326;9.738;2022-07-29T10:46:12;2.67;;;2.15;;
9240;SDS011;53485;49.326;9.738;2022-07-29T10:49:16;1.90;;;1.80;;
9240;SDS011;53485;49.326;9.738;2022-07-29T10:54:09;2.50;;;2.30;;
9240;SDS011;53485;49.326;9.738;2022-07-29T10:56:37;1.90;;;1.80;;
9240;SDS011;53485;49.326;9.738;2022-07-29T10:59:25;2.95;;;1.85;;
9240;SDS011;53485;49.326;9.738;2022-07-29T11:01:52;1.73;;;1.60;;
9240;SDS011;53485;49.326;9.738;2022-07-29T11:07:13;1.67;;;1.58;;
9240;SDS011;53485;49.326;9.738;2022-07-29T11:09:41;2.53;;;2.00;;
9240;SDS011;53485;49.326;9.738;2022-07-29T11:14:58;4.68;;;2.50;;
9240;SDS011;53485;49.326;9.738;2022-07-29T11:17:25;2.53;;;2.33;;
9240;SDS011;53485;49.326;9.738;2022-07-29T11:20:30;2.70;;;2.50;;
9240;SDS011;53485;49.326;9.738;2022-07-29T11:22:31;2.20;;;2.10;;
9240;SDS011;53485;49.326;9.738;2022-07-29T11:27:38;4.22;;;2.35;;
9240;SDS011;53485;49.326;9.738;2022-07-29T11:30:06;2.87;;;2.30;;
9240;SDS011;53485;49.326;9.738;2022-07-29T11:32:36;3.08;;;2.40;;
9240;SDS011;53485;49.326;9.738;2022-07-29T11:35:23;3.95;;;2.58;;
9240;SDS011;53485;49.326;9.738;2022-07-29T11:40:39;4.60;;;2.40;;
9240;SDS011;53485;49.326;9.738;2022-07-29T11:43:07;5.57;;;3.25;;
9240;SDS011;53485;49.326;9.738;2022-07-29T11:48:15;3.40;;;2.50;;
9240;SDS011;53485;49.326;9.738;2022-07-29T11:50:42;3.12;;;2.92;;
9240;SDS011;53485;49.326;9.738;2022-07-29T11:53:11;3.12;;;2.92;;
9240;SDS011;53485;49.326;9.738;2022-07-29T11:55:37;3.83;;;2.60;;
9240;SDS011;53485;49.326;9.738;2022-07-29T11:58:04;2.58;;;2.37;;
9240;SDS011;53485;49.326;9.738;2022-07-29T12:00:34;3.12;;;2.87;;
9240;SDS011;53485;49.326;9.738;2022-07-29T12:03:01;3.08;;;2.47;;
9240;SDS011;53485;49.326;9.738;2022-07-29T12:05:30;2.60;;;2.40;;
9240;SDS011;53485;49.326;9.738;2022-07-29T12:08:04;2.97;;;2.72;;
9240;SDS011;53485;49.326;9.738;2022-07-29T12:10:40;2.78;;;2.67;;
9240;SDS011;53485;49.326;9.738;2022-07-29T12:13:07;2.95;;;2.78;;
9240;SDS011;53485;49.326;9.738;2022-07-29T12:15:34;3.33;;;3.08;;
9240;SDS011;53485;49.326;9.738;2022-07-29T12:20:44;2.50;;;2.40;;
9240;SDS011;53485;49.326;9.738;2022-07-29T12:23:11;2.92;;;2.72;;
9240;SDS011;53485;49.326;9.738;2022-07-29T12:25:40;3.83;;;3.53;;
9240;SDS011;53485;49.326;9.738;2022-07-29T12:28:08;2.80;;;2.60;;
9240;SDS011;53485;49.326;9.738;2022-07-29T12:30:38;3.70;;;3.15;;
9240;SDS011;53485;49.326;9.738;2022-07-29T12:33:09;5.90;;;3.25;;
9240;SDS011;53485;49.326;9.738;2022-07-29T12:35:30;3.00;;;2.80;;
9240;SDS011;53485;49.326;9.738;2022-07-29T12:37:58;3.58;;;3.20;;
9240;SDS011;53485;49.326;9.738;2022-07-29T12:40:26;3.62;;;3.00;;
9240;SDS011;53485;49.326;9.738;2022-07-29T12:45:32;3.25;;;3.00;;
9240;SDS011;53485;49.326;9.738;2022-07-29T12:48:00;3.03;;;2.83;;
9240;SDS011;53485;49.326;9.738;2022-07-29T12:50:27;3.33;;;3.10;;
9240;SDS011;53485;49.326;9.738;2022-07-29T12:53:03;4.03;;;3.08;;
9240;SDS011;53485;49.326;9.738;2022-07-29T12:58:02;3.00;;;2.80;;
9240;SDS011;53485;49.326;9.738;2022-07-29T13:00:29;4.12;;;3.00;;
9240;SDS011;53485;49.326;9.738;2022-07-29T13:02:58;3.50;;;3.30;;
9240;SDS011;53485;49.326;9.738;2022-07-29T13:05:38;3.95;;;3.20;;
9240;SDS011;53485;49.326;9.738;2022-07-29T13:07:52;4.18;;;3.35;;
9240;SDS011;53485;49.326;9.738;2022-07-29T13:10:20;3.28;;;3.08;;
9240;SDS011;53485;49.326;9.738;2022-07-29T13:15:27;3.92;;;3.60;;
9240;SDS011;53485;49.326;9.738;2022-07-29T13:17:54;4.57;;;4.28;;
9240;SDS011;53485;49.326;9.738;2022-07-29T13:20:23;5.00;;;3.78;;
9240;SDS011;53485;49.326;9.738;2022-07-29T13:22:50;4.25;;;3.95;;
9240;SDS011;53485;49.326;9.738;2022-07-29T13:27:51;4.18;;;3.62;;
9240;SDS011;53485;49.326;9.738;2022-07-29T13:30:19;4.55;;;3.97;;
9240;SDS011;53485;49.326;9.738;2022-07-29T13:32:47;4.93;;;4.53;;
9240;SDS011;53485;49.326;9.738;2022-07-29T13:35:15;6.37;;;4.37;;
9240;SDS011;53485;49.326;9.738;2022-07-29T13:37:42;5.72;;;4.70;;
9240;SDS011;53485;49.326;9.738;2022-07-29T13:40:10;4.32;;;3.97;;
9240;SDS011;53485;49.326;9.738;2022-07-29T13:42:38;3.35;;;3.03;;
9240;SDS011;53485;49.326;9.738;2022-07-29T13:45:06;2.10;;;1.70;;
9240;SDS011;53485;49.326;9.738;2022-07-29T13:47:34;2.80;;;1.40;;
9240;SDS011;53485;49.326;9.738;2022-07-29T13:50:02;4.75;;;2.15;;
9240;SDS011;53485;49.326;9.738;2022-07-29T13:52:30;2.75;;;1.62;;
9240;SDS011;53485;49.326;9.738;2022-07-29T13:54:58;3.30;;;1.87;;
9240;SDS011;53485;49.326;9.738;2022-07-29T13:57:26;3.05;;;1.70;;
9240;SDS011;53485;49.326;9.738;2022-07-29T13:59:54;2.62;;;1.67;;
9240;SDS011;53485;49.326;9.738;2022-07-29T14:02:22;1.77;;;1.62;;
9240;SDS011;53485;49.326;9.738;2022-07-29T14:04:49;2.92;;;1.70;;
9240;SDS011;53485;49.326;9.738;2022-07-29T14:07:17;3.28;;;1.58;;
9240;SDS011;53485;49.326;9.738;2022-07-29T14:09:45;2.65;;;1.50;;
9240;SDS011;53485;49.326;9.738;2022-07-29T14:12:13;1.92;;;1.70;;
9240;SDS011;53485;49.326;9.738;2022-07-29T14:14:41;2.42;;;1.83;;
9240;SDS011;53485;49.326;9.738;2022-07-29T14:17:09;2.42;;;2.00;;
9240;SDS011;53485;49.326;9.738;2022-07-29T14:19:37;2.42;;;2.00;;
9240;SDS011;53485;49.326;9.738;2022-07-29T14:22:05;3.97;;;1.62;;
9240;SDS011;53485;49.326;9.738;2022-07-29T14:24:32;6.43;;;2.30;;
9240;SDS011;53485;49.326;9.738;2022-07-29T14:27:00;3.87;;;2.35;;
9240;SDS011;53485;49.326;9.738;2022-07-29T14:29:27;2.50;;;2.30;;
9240;SDS011;53485;49.326;9.738;2022-07-29T14:31:54;2.70;;;1.77;;
9240;SDS011;53485;49.326;9.738;2022-07-29T14:34:22;1.90;;;1.80;;
9240;SDS011;53485;49.326;9.738;2022-07-29T14:36:49;2.97;;;2.20;;
9240;SDS011;53485;49.326;9.738;2022-07-29T14:39:17;2.33;;;2.13;;
9240;SDS011;53485;49.326;9.738;2022-07-29T14:41:44;2.77;;;2.50;;
9240;SDS011;53485;49.326;9.738;2022-07-29T14:44:11;3.03;;;2.23;;
9240;SDS011;53485;49.326;9.738;2022-07-29T14:46:39;2.67;;;2.57;;
9240;SDS011;53485;49.326;9.738;2022-07-29T14:49:06;4.93;;;2.33;;
9240;SDS011;53485;49.326;9.738;2022-07-29T14:51:34;4.30;;;2.73;;
9240;SDS011;53485;49.326;9.738;2022-07-29T14:54:01;8.63;;;4.00;;
9240;SDS011;53485;49.326;9.738;2022-07-29T14:56:28;8.23;;;3.10;;
9240;SDS011;53485;49.326;9.738;2022-07-29T14:58:56;7.63;;;3.37;;
9240;SDS011;53485;49.326;9.738;2022-07-29T15:01:23;11.17;;;3.53;;
9240;SDS011;53485;49.326;9.738;2022-07-29T15:03:49;8.73;;;3.57;;
9240;SDS011;53485;49.326;9.738;2022-07-29T15:06:16;17.20;;;4.83;;
9240;SDS011;53485;49.326;9.738;2022-07-29T15:08:43;15.73;;;6.13;;
9240;SDS011;53485;49.326;9.738;2022-07-29T15:11:11;5.70;;;4.20;;
9240;SDS011;53485;49.326;9.738;2022-07-29T15:13:38;10.83;;;5.00;;
9240;SDS011;53485;49.326;9.738;2022-07-29T15:16:06;6.63;;;3.73;;
9240;SDS011;53485;49.326;9.738;2022-07-29T15:18:33;5.67;;;4.53;;
9240;SDS011;53485;49.326;9.738;2022-07-29T15:21:00;4.90;;;4.30;;
9240;SDS011;53485;49.326;9.738;2022-07-29T15:23:27;5.57;;;4.60;;
9240;SDS011;53485;49.326;9.738;2022-07-29T15:25:54;6.10;;;5.50;;
9240;SDS011;53485;49.326;9.738;2022-07-29T15:28:21;5.33;;;4.80;;
9240;SDS011;53485;49.326;9.738;2022-07-29T15:30:49;6.90;;;5.23;;
9240;SDS011;53485;49.326;9.738;2022-07-29T15:33:16;4.50;;;4.20;;
9240;SDS011;53485;49.326;9.738;2022-07-29T15:35:43;4.30;;;3.90;;
9240;SDS011;53485;49.326;9.738;2022-07-29T15:38:11;4.50;;;4.10;;
9240;SDS011;53485;49.326;9.738;2022-07-29T15:40:38;5.07;;;4.70;;
9240;SDS011;53485;49.326;9.738;2022-07-29T15:43:06;5.10;;;4.27;;
9240;SDS011;53485;49.326;9.738;2022-07-29T15:45:38;4.80;;;4.43;;
9240;SDS011;53485;49.326;9.738;2022-07-29T15:48:04;4.83;;;3.77;;